Time;durP1;ratioP1;P1;durP2;ratioP2;P2;SDS_P1;SDS_P2;PMS_P1;PMS_P2;Temp;Humidity;BMP_temperature;BMP_pressure;BME280_temperature;BME280_humidity;BME280_pressure;Samples;Min_cycle;Max_cycle;Signal;HPM_P1;HPM_P2
2021/08/17 00:00:58;;;;;;;50.00;16.77;;;;;;;18.49;100.00;100875.91;1783409;80;20892;-82
2021/08/17 00:03:24;;;;;;;43.58;17.65;;;;;;;18.48;100.00;100873.73;1783229;79;21067;-83
2021/08/17 00:05:51;;;;;;;37.03;16.07;;;;;;;18.49;100.00;100878.63;1783303;79;20959;-82
2021/08/17 00:08:17;;;;;;;52.75;18.23;;;;;;;18.50;100.00;100874.78;1783215;79;21473;-82
2021/08/17 00:10:43;;;;;;;54.73;19.90;;;;;;;18.44;100.00;100883.63;1783438;79;20857;-81
2021/08/17 00:13:09;;;;;;;51.85;18.07;;;;;;;18.42;100.00;100880.98;1783169;79;20975;-86
2021/08/17 00:15:35;;;;;;;48.25;18.10;;;;;;;18.42;100.00;100883.15;1783449;80;21156;-83
2021/08/17 00:18:02;;;;;;;44.10;18.02;;;;;;;18.46;100.00;100884.70;1784791;79;20924;-80
2021/08/17 00:20:29;;;;;;;53.02;18.85;;;;;;;18.46;100.00;100879.25;1782548;79;21216;-85
2021/08/17 00:22:54;;;;;;;50.45;18.87;;;;;;;18.46;100.00;100875.16;1777784;79;21031;-80
2021/08/17 00:25:20;;;;;;;50.05;19.00;;;;;;;18.44;100.00;100881.46;1777957;79;21106;-79
2021/08/17 00:27:46;;;;;;;44.08;18.40;;;;;;;18.45;100.00;100872.19;1778096;79;20996;-84
2021/08/17 00:30:13;;;;;;;54.73;18.82;;;;;;;18.45;100.00;100883.91;1777855;79;21645;-80
2021/08/17 00:32:39;;;;;;;47.35;19.35;;;;;;;18.45;100.00;100874.35;1777991;79;21547;-85
2021/08/17 00:35:05;;;;;;;45.90;18.85;;;;;;;18.44;100.00;100880.10;1777655;80;20912;-84
2021/08/17 00:37:32;;;;;;;49.40;18.87;;;;;;;18.43;100.00;100883.39;1777905;79;21012;-78
2021/08/17 00:39:59;;;;;;;45.33;18.00;;;;;;;18.43;100.00;100876.57;1777924;79;20989;-82
2021/08/17 00:42:25;;;;;;;43.85;17.57;;;;;;;18.45;100.00;100871.63;1777773;80;21401;-81
2021/08/17 00:44:52;;;;;;;61.65;20.52;;;;;;;18.44;100.00;100880.91;1777796;80;20993;-80
2021/08/17 00:47:18;;;;;;;55.05;20.72;;;;;;;18.44;100.00;100881.46;1777597;79;21015;-81
2021/08/17 00:49:45;;;;;;;54.23;20.45;;;;;;;18.44;100.00;100883.63;1777955;79;21488;-81
2021/08/17 00:52:13;;;;;;;58.13;20.82;;;;;;;18.44;100.00;100885.00;1745528;80;21047;-79
2021/08/17 00:54:44;;;;;;;48.98;19.07;;;;;;;18.45;100.00;100882.54;1777957;79;21541;-81
2021/08/17 00:57:13;;;;;;;54.63;19.42;;;;;;;18.41;100.00;100888.90;1777787;79;21507;-84
2021/08/17 00:59:43;;;;;;;53.80;19.23;;;;;;;18.36;100.00;100886.54;1778078;79;21023;-80
2021/08/17 01:02:09;;;;;;;75.12;21.27;;;;;;;18.33;100.00;100885.78;1777673;79;20979;-85
2021/08/17 01:04:40;;;;;;;67.75;19.75;;;;;;;18.33;100.00;100886.34;1777913;80;21586;-82
2021/08/17 01:07:10;;;;;;;52.95;19.98;;;;;;;18.29;100.00;100886.12;1777985;80;20969;-84
2021/08/17 01:09:40;;;;;;;55.28;20.82;;;;;;;18.25;100.00;100882.41;1777945;79;21015;-82
2021/08/17 01:12:09;;;;;;;51.77;20.32;;;;;;;18.23;100.00;100885.98;1777937;79;21055;-83
2021/08/17 01:14:35;;;;;;;53.30;18.42;;;;;;;18.23;100.00;100879.16;1777746;80;21035;-82
2021/08/17 01:17:01;;;;;;;52.62;18.85;;;;;;;18.23;100.00;100883.81;1777955;79;21142;-80
2021/08/17 01:19:27;;;;;;;47.83;18.62;;;;;;;18.23;100.00;100892.00;1778049;79;21026;-83
2021/08/17 01:21:53;;;;;;;50.17;18.90;;;;;;;18.22;100.00;100888.47;1777831;79;20928;-81
2021/08/17 01:24:20;;;;;;;43.25;17.20;;;;;;;18.22;100.00;100888.47;1777950;80;21476;-86
2021/08/17 01:26:47;;;;;;;46.73;18.27;;;;;;;18.20;100.00;100890.68;1777935;79;20992;-81
2021/08/17 01:31:43;;;;;;;44.40;17.95;;;;;;;18.14;100.00;100886.44;1712832;83;21010;-81
2021/08/17 01:34:09;;;;;;;41.33;18.45;;;;;;;18.09;100.00;100894.75;1713246;83;21089;-81
2021/08/17 01:36:36;;;;;;;45.92;19.00;;;;;;;18.07;100.00;100889.58;1713189;83;21019;-81
2021/08/17 01:39:02;;;;;;;53.98;19.12;;;;;;;18.08;100.00;100885.73;1712944;83;21078;-78
2021/08/17 01:41:28;;;;;;;43.13;18.40;;;;;;;18.08;100.00;100882.20;1713149;83;21908;-82
2021/08/17 01:43:54;;;;;;;49.77;18.80;;;;;;;18.06;100.00;100890.70;1712921;83;20879;-81
2021/08/17 01:46:20;;;;;;;52.78;20.57;;;;;;;17.97;100.00;100882.98;1713158;83;20930;-82
2021/08/17 01:48:46;;;;;;;44.83;18.10;;;;;;;17.96;100.00;100881.90;1713171;83;20907;-82
2021/08/17 01:51:12;;;;;;;46.10;19.45;;;;;;;17.97;100.00;100890.33;1713292;83;20884;-81
2021/08/17 01:53:38;;;;;;;49.73;21.20;;;;;;;17.96;100.00;100890.08;1713213;83;21151;-82
2021/08/17 01:56:11;;;;;;;42.88;18.98;;;;;;;17.99;100.00;100894.93;1713108;83;21518;-82
2021/08/17 01:58:37;;;;;;;49.93;19.37;;;;;;;18.01;100.00;100898.98;1713268;83;21696;-82
2021/08/17 02:01:06;;;;;;;46.18;18.65;;;;;;;18.02;100.00;100898.41;1713186;83;21022;-81
2021/08/17 02:03:31;;;;;;;44.00;17.45;;;;;;;18.00;100.00;100901.46;1714320;83;20994;-79
2021/08/17 02:05:58;;;;;;;44.03;18.17;;;;;;;18.00;100.00;100902.82;1713533;83;21038;-82
2021/08/17 02:08:25;;;;;;;44.23;19.07;;;;;;;17.97;100.00;100908.05;1713177;83;21019;-81
2021/08/17 02:10:51;;;;;;;45.50;19.15;;;;;;;17.93;100.00;100904.56;1712992;83;21494;-81
2021/08/17 02:13:17;;;;;;;41.48;18.35;;;;;;;17.96;100.00;100905.88;1713096;83;20896;-80
2021/08/17 02:15:45;;;;;;;42.38;18.30;;;;;;;17.98;100.00;100902.87;1689316;83;21040;-80
2021/08/17 02:18:11;;;;;;;40.43;18.35;;;;;;;17.99;100.00;100897.66;1713080;83;20997;-78
2021/08/17 02:20:37;;;;;;;55.70;19.82;;;;;;;18.02;100.00;100902.50;1713183;83;21052;-81
2021/08/17 02:23:04;;;;;;;46.37;20.17;;;;;;;18.01;100.00;100898.17;1719849;83;21094;-81
2021/08/17 02:25:29;;;;;;;47.20;18.32;;;;;;;18.04;100.00;100903.83;1720222;83;21026;-84
2021/08/17 02:27:55;;;;;;;47.23;19.52;;;;;;;18.07;100.00;100903.78;1736448;80;20911;-81
2021/08/17 02:30:21;;;;;;;45.20;19.70;;;;;;;18.08;100.00;100899.37;1783243;80;21152;-77
2021/08/17 02:32:47;;;;;;;50.12;19.75;;;;;;;18.12;100.00;100907.22;1782731;80;21368;-81
2021/08/17 02:35:13;;;;;;;44.63;18.65;;;;;;;18.13;100.00;100903.38;1783184;79;21059;-80
2021/08/17 02:37:40;;;;;;;53.20;19.17;;;;;;;18.10;100.00;100912.16;1783000;80;21020;-84
2021/08/17 02:40:07;;;;;;;51.08;19.65;;;;;;;18.02;100.00;100899.78;1782707;80;21019;-81
2021/08/17 02:42:34;;;;;;;49.30;20.08;;;;;;;18.00;100.00;100894.64;1783075;79;22049;-81
2021/08/17 02:45:01;;;;;;;50.35;20.48;;;;;;;18.00;100.00;100886.98;1783006;79;21200;-87
2021/08/17 02:47:29;;;;;;;48.92;19.60;;;;;;;18.06;100.00;100902.14;1783149;79;21015;-80
2021/08/17 02:49:55;;;;;;;54.77;20.60;;;;;;;18.13;100.00;100914.84;1783121;80;20996;-81
2021/08/17 02:52:21;;;;;;;53.13;22.32;;;;;;;18.16;100.00;100915.04;1783200;80;21514;-77
2021/08/17 02:54:50;;;;;;;50.30;21.48;;;;;;;18.10;100.00;100904.53;1782982;79;21058;-81
2021/08/17 02:57:15;;;;;;;47.95;20.65;;;;;;;18.20;100.00;100933.53;1782704;79;21523;-80
2021/08/17 02:59:41;;;;;;;50.92;20.02;;;;;;;18.19;100.00;100931.92;1750814;80;20935;-80
2021/08/17 03:02:07;;;;;;;52.88;21.20;;;;;;;18.23;100.00;100931.55;1751427;80;21533;-81
2021/08/17 03:04:33;;;;;;;78.52;22.95;;;;;;;18.28;100.00;100942.37;1783252;80;20991;-82
2021/08/17 03:06:59;;;;;;;53.73;21.42;;;;;;;18.33;100.00;100943.09;1782960;80;21011;-82
2021/08/17 03:09:25;;;;;;;63.60;22.77;;;;;;;18.36;100.00;100934.85;1782888;80;20857;-81
2021/08/17 03:11:52;;;;;;;70.45;24.10;;;;;;;18.39;100.00;100932.32;1783199;79;20975;-77
2021/08/17 03:14:17;;;;;;;62.93;22.82;;;;;;;18.44;100.00;100941.50;1782955;79;20999;-81
2021/08/17 03:16:43;;;;;;;60.52;22.55;;;;;;;18.50;100.00;100942.48;1783169;79;20825;-80
2021/08/17 03:19:09;;;;;;;71.80;23.15;;;;;;;18.59;100.00;100940.65;1783104;79;21188;-81
2021/08/17 03:21:35;;;;;;;62.88;21.82;;;;;;;18.69;100.00;100938.81;1781461;79;20982;-81
2021/08/17 03:24:01;;;;;;;58.13;22.67;;;;;;;18.80;100.00;100941.05;1777765;79;20991;-78
2021/08/17 03:26:28;;;;;;;69.03;22.50;;;;;;;18.90;100.00;100942.73;1777815;79;20983;-81
2021/08/17 03:28:54;;;;;;;57.70;22.37;;;;;;;19.00;100.00;100941.69;1777779;79;21534;-80
2021/08/17 03:31:20;;;;;;;63.40;21.70;;;;;;;19.14;100.00;100940.29;1777995;80;21151;-85
2021/08/17 03:33:46;;;;;;;58.50;22.37;;;;;;;19.31;100.00;100941.00;1777656;79;21004;-81
2021/08/17 03:36:12;;;;;;;59.35;21.75;;;;;;;19.44;100.00;100941.48;1777853;79;21642;-85
2021/08/17 03:38:38;;;;;;;58.05;22.07;;;;;;;19.58;100.00;100944.16;1777655;80;21052;-81
2021/08/17 03:41:05;;;;;;;61.35;23.02;;;;;;;19.72;100.00;100944.92;1778192;80;20992;-80
2021/08/17 03:43:33;;;;;;;63.20;22.55;;;;;;;19.86;100.00;100941.55;1777769;79;21556;-78
2021/08/17 03:45:59;;;;;;;55.35;21.75;;;;;;;20.09;100.00;100944.21;1777871;79;21450;-82
2021/08/17 03:48:26;;;;;;;53.63;22.17;;;;;;;20.52;100.00;100944.40;1778054;79;21085;-81
2021/08/17 03:50:52;;;;;;;55.60;22.50;;;;;;;21.11;100.00;100942.63;1778309;79;21488;-80
2021/08/17 03:53:18;;;;;;;54.73;22.00;;;;;;;21.71;100.00;100932.20;1777524;79;20980;-81
2021/08/17 03:55:44;;;;;;;55.48;22.42;;;;;;;22.30;100.00;100932.09;1777551;79;21097;-81
2021/08/17 03:58:10;;;;;;;49.05;22.80;;;;;;;22.88;100.00;100935.37;1777807;79;20928;-84
2021/08/17 04:00:36;;;;;;;52.95;21.25;;;;;;;23.49;100.00;100934.85;1777789;79;21314;-81
2021/08/17 04:03:03;;;;;;;61.50;23.87;;;;;;;24.07;100.00;100923.09;1765799;80;20984;-79
2021/08/17 04:05:29;;;;;;;55.60;22.82;;;;;;;24.79;100.00;100928.31;1777514;80;21039;-81
2021/08/17 04:07:55;;;;;;;62.95;23.62;;;;;;;25.32;100.00;100931.05;1777858;79;21087;-80
2021/08/17 04:10:22;;;;;;;55.25;21.85;;;;;;;25.89;100.00;100927.67;1777713;80;20985;-79
2021/08/17 04:12:48;;;;;;;57.40;23.83;;;;;;;26.55;100.00;100929.67;1777880;80;21011;-81
2021/08/17 04:15:14;;;;;;;53.08;24.63;;;;;;;27.20;100.00;100932.46;1767064;80;21504;-81
2021/08/17 04:17:41;;;;;;;50.58;23.85;;;;;;;27.63;100.00;100929.34;1777555;79;20935;-83
2021/08/17 04:20:11;;;;;;;52.88;23.55;;;;;;;27.98;100.00;100928.41;1777446;80;21109;-81
2021/08/17 04:22:38;;;;;;;56.02;24.90;;;;;;;28.40;100.00;100916.38;1780564;79;21026;-81
2021/08/17 04:25:05;;;;;;;54.48;26.02;;;;;;;28.62;100.00;100920.30;1782820;80;21039;-81
2021/08/17 04:27:31;;;;;;;53.78;24.57;;;;;;;28.71;100.00;100917.25;1782701;79;21012;-80
2021/08/17 04:29:59;;;;;;;55.23;25.52;;;;;;;29.04;100.00;100915.72;1782967;79;21491;-81
2021/08/17 04:32:25;;;;;;;49.85;25.12;;;;;;;29.40;100.00;100913.53;1693031;84;21258;-81
2021/08/17 04:34:51;;;;;;;46.85;24.77;;;;;;;29.76;100.00;100913.11;1692224;84;21077;-80
2021/08/17 04:37:17;;;;;;;49.80;24.27;;;;;;;30.04;100.00;100906.41;1685684;84;21637;-80
2021/08/17 04:39:43;;;;;;;49.23;23.95;;;;;;;30.35;100.00;100905.65;1682473;84;20983;-80
2021/08/17 04:42:09;;;;;;;50.30;25.52;;;;;;;30.74;100.00;100910.66;1682563;84;21546;-77
2021/08/17 04:44:35;;;;;;;53.05;26.17;;;;;;;31.41;100.00;100914.33;1692256;84;21161;-83
2021/08/17 04:47:02;;;;;;;48.58;24.80;;;;;;;31.96;98.80;100920.77;1679215;84;21014;-81
2021/08/17 04:49:28;;;;;;;47.73;24.32;;;;;;;32.32;98.20;100917.34;1682908;84;21156;-81
2021/08/17 04:51:54;;;;;;;38.67;20.92;;;;;;;33.06;91.13;100911.97;1693203;84;21053;-81
2021/08/17 04:54:20;;;;;;;40.52;21.65;;;;;;;33.52;90.55;100924.91;1693296;83;20895;-85
2021/08/17 04:56:46;;;;;;;45.92;22.10;;;;;;;34.33;81.67;100920.66;1693275;84;21078;-82
2021/08/17 04:59:12;;;;;;;38.50;21.93;;;;;;;35.03;77.62;100924.47;1693155;84;20977;-78
2021/08/17 05:01:38;;;;;;;41.35;21.90;;;;;;;35.47;68.40;100921.28;1693207;84;20903;-85
2021/08/17 05:04:04;;;;;;;40.63;21.80;;;;;;;35.60;66.99;100926.32;1693173;84;20966;-80
2021/08/17 05:06:30;;;;;;;40.88;22.27;;;;;;;36.02;63.86;100931.83;1692951;84;21158;-86
2021/08/17 05:08:56;;;;;;;40.58;21.42;;;;;;;36.73;60.78;100935.98;1693266;84;21040;-80
2021/08/17 05:11:22;;;;;;;38.00;21.12;;;;;;;37.27;56.34;100921.61;1693230;84;20977;-79
2021/08/17 05:13:48;;;;;;;36.68;20.62;;;;;;;37.23;54.48;100918.07;1693192;84;20990;-80
2021/08/17 05:16:14;;;;;;;36.60;20.70;;;;;;;37.24;53.85;100925.27;1693354;84;20911;-75
2021/08/17 05:18:40;;;;;;;35.48;19.73;;;;;;;37.57;52.26;100916.30;1693437;84;21033;-82
2021/08/17 05:21:05;;;;;;;44.58;20.75;;;;;;;37.59;52.00;100914.45;1693252;84;21063;-78
2021/08/17 05:23:32;;;;;;;36.63;20.25;;;;;;;37.93;50.07;100913.41;1708089;83;20886;-75
2021/08/17 05:25:58;;;;;;;42.43;21.20;;;;;;;38.44;48.56;100913.50;1686825;83;21536;-80
2021/08/17 05:28:24;;;;;;;35.92;20.92;;;;;;;38.84;48.00;100918.97;1710219;80;20833;-80
2021/08/17 05:30:50;;;;;;;40.43;22.58;;;;;;;39.21;46.56;100920.10;1782982;79;21562;-78
2021/08/17 05:33:16;;;;;;;37.55;21.55;;;;;;;39.74;46.27;100914.22;1783445;79;21060;-80
2021/08/17 05:35:43;;;;;;;39.10;20.60;;;;;;;40.46;43.60;100923.66;1783515;80;21016;-79
2021/08/17 05:38:10;;;;;;;45.73;21.25;;;;;;;40.63;43.38;100921.61;1782415;80;21020;-82
2021/08/17 05:40:36;;;;;;;33.80;19.17;;;;;;;41.05;41.26;100925.48;1782596;79;21523;-80
2021/08/17 05:43:04;;;;;;;32.60;18.45;;;;;;;41.41;40.67;100928.92;1782999;79;21028;-78
2021/08/17 05:45:31;;;;;;;29.52;17.12;;;;;;;41.79;38.99;100922.14;1782754;80;22014;-83
2021/08/17 05:47:58;;;;;;;32.95;16.87;;;;;;;41.62;39.06;100920.20;1782813;79;21540;-80
2021/08/17 05:50:24;;;;;;;23.95;14.38;;;;;;;41.91;39.13;100926.90;1782591;80;20972;-79
2021/08/17 05:52:50;;;;;;;24.23;12.88;;;;;;;42.30;36.41;100913.86;1782959;79;21613;-85
2021/08/17 05:55:16;;;;;;;27.17;13.13;;;;;;;42.50;35.72;100914.80;1782884;79;21032;-78
2021/08/17 05:57:53;;;;;;;24.43;12.98;;;;;;;42.47;34.41;100917.80;1772127;80;21123;-77
2021/08/17 06:00:22;;;;;;;18.90;11.78;;;;;;;42.54;33.54;100913.23;1781941;80;21050;-79
2021/08/17 06:02:51;;;;;;;22.70;13.20;;;;;;;43.03;33.14;100915.78;1782723;79;21015;-79
2021/08/17 06:05:17;;;;;;;27.05;13.78;;;;;;;43.36;32.75;100912.22;1782895;79;21000;-79
2021/08/17 06:07:50;;;;;;;29.65;16.25;;;;;;;44.03;32.17;100910.08;1783170;79;21424;-78
2021/08/17 06:10:17;;;;;;;30.15;18.23;;;;;;;44.59;31.58;100914.00;1765236;80;21127;-79
2021/08/17 06:12:47;;;;;;;28.57;18.10;;;;;;;44.82;31.05;100911.58;1765193;81;21673;-79
2021/08/17 06:15:15;;;;;;;25.95;15.32;;;;;;;44.87;30.86;100918.78;1764635;81;21027;-78
2021/08/17 06:17:41;;;;;;;24.90;15.10;;;;;;;44.91;30.46;100910.69;1764885;81;21032;-77
2021/08/17 06:20:10;;;;;;;25.60;14.70;;;;;;;44.97;30.03;100915.83;1765353;81;21555;-82
2021/08/17 06:22:36;;;;;;;25.95;14.50;;;;;;;45.24;29.62;100918.98;1763187;81;20984;-77
2021/08/17 06:25:04;;;;;;;21.42;14.68;;;;;;;45.50;28.97;100924.18;1761337;81;20956;-77
2021/08/17 06:27:31;;;;;;;20.82;14.23;;;;;;;45.41;28.12;100926.36;1762361;81;21043;-78
2021/08/17 06:29:57;;;;;;;20.97;15.15;;;;;;;45.64;28.62;100936.03;1763034;81;21044;-79
2021/08/17 06:32:23;;;;;;;21.15;14.25;;;;;;;46.04;28.02;100927.34;1762738;81;20996;-79
2021/08/17 06:34:49;;;;;;;22.17;13.10;;;;;;;46.14;27.52;100938.75;1762646;81;21053;-79
2021/08/17 06:37:15;;;;;;;23.92;13.58;;;;;;;46.12;27.17;100934.95;1736918;81;20884;-78
2021/08/17 06:39:41;;;;;;;17.20;13.28;;;;;;;46.09;26.96;100935.19;1762590;81;21007;-79
2021/08/17 06:42:07;;;;;;;19.60;13.65;;;;;;;46.22;26.60;100938.45;1762700;81;20996;-79
2021/08/17 06:44:33;;;;;;;23.60;13.98;;;;;;;46.20;26.47;100929.61;1763007;81;21051;-77
2021/08/17 06:46:59;;;;;;;21.30;13.43;;;;;;;46.36;26.45;100931.91;1762797;81;21305;-79
2021/08/17 06:49:25;;;;;;;18.77;12.58;;;;;;;46.51;26.05;100934.64;1762948;81;21712;-79
2021/08/17 06:51:52;;;;;;;19.35;12.45;;;;;;;46.43;26.54;100932.87;1762895;81;20977;-80
2021/08/17 06:54:18;;;;;;;16.62;12.15;;;;;;;46.67;26.53;100930.40;1762759;81;21008;-79
2021/08/17 06:56:44;;;;;;;16.30;12.65;;;;;;;46.94;25.32;100930.48;1737619;81;21228;-80
2021/08/17 06:59:10;;;;;;;14.40;11.68;;;;;;;47.03;25.60;100934.61;1762934;81;21052;-86
2021/08/17 07:01:36;;;;;;;16.05;11.40;;;;;;;47.22;24.99;100933.59;1762919;81;21035;-81
2021/08/17 07:04:02;;;;;;;14.43;12.40;;;;;;;47.26;24.93;100937.63;1762995;81;20893;-78
2021/08/17 07:06:28;;;;;;;14.65;11.15;;;;;;;47.45;24.54;100941.68;1766783;80;21038;-82
2021/08/17 07:08:55;;;;;;;14.60;10.58;;;;;;;47.64;23.89;100939.82;1764006;81;21071;-81
2021/08/17 07:11:29;;;;;;;13.38;10.88;;;;;;;47.45;23.56;100944.53;1764596;81;21058;-78
2021/08/17 07:13:55;;;;;;;12.05;10.05;;;;;;;47.22;24.18;100946.44;1763969;81;21021;-81
2021/08/17 07:16:20;;;;;;;13.50;10.70;;;;;;;46.99;23.92;100957.52;1765538;80;20954;-86
2021/08/17 07:18:46;;;;;;;11.55;10.08;;;;;;;46.35;24.48;100960.25;1765798;81;20919;-83
2021/08/17 07:21:12;;;;;;;14.13;8.80;;;;;;;46.31;24.64;100956.86;1737541;81;20984;-80
2021/08/17 07:23:38;;;;;;;15.18;9.48;;;;;;;45.91;24.19;100958.42;1767592;81;21645;-82
2021/08/17 07:26:07;;;;;;;14.45;9.23;;;;;;;45.11;25.73;100961.98;1769745;81;21005;-81
2021/08/17 07:28:32;;;;;;;13.68;9.55;;;;;;;45.29;25.52;100958.92;1768924;81;21515;-81
2021/08/17 07:30:58;;;;;;;14.93;9.30;;;;;;;45.66;25.37;100961.31;1769771;81;20872;-80
2021/08/17 07:33:24;;;;;;;14.20;10.03;;;;;;;46.08;25.20;100957.85;1777262;80;20976;-81
2021/08/17 07:35:50;;;;;;;12.35;9.25;;;;;;;46.26;25.38;100952.48;1785926;79;21045;-82
2021/08/17 07:38:16;;;;;;;14.33;9.93;;;;;;;46.32;24.84;100954.78;1785826;80;21046;-81
2021/08/17 07:40:43;;;;;;;11.88;10.03;;;;;;;45.92;24.86;100952.07;1781422;80;21007;-81
2021/08/17 07:43:09;;;;;;;13.22;10.53;;;;;;;45.89;25.15;100958.16;1782777;79;21530;-80
2021/08/17 07:45:35;;;;;;;20.00;10.78;;;;;;;46.31;25.56;100958.28;1782976;79;21027;-81
2021/08/17 07:48:01;;;;;;;13.90;9.10;;;;;;;46.85;24.67;100959.21;1782873;79;21048;-82
2021/08/17 07:50:30;;;;;;;14.15;9.33;;;;;;;46.13;24.35;100955.72;1782666;80;20978;-86
2021/08/17 07:52:56;;;;;;;13.32;9.50;;;;;;;45.73;24.75;100958.03;1782009;79;21011;-81
2021/08/17 07:55:21;;;;;;;14.03;9.85;;;;;;;46.27;24.96;100959.74;1782846;80;20976;-78
2021/08/17 07:57:49;;;;;;;14.65;9.90;;;;;;;46.52;24.81;100947.61;1782796;80;20896;-82
2021/08/17 08:00:16;;;;;;;13.15;9.20;;;;;;;46.83;24.40;100941.81;1774846;80;21940;-81
2021/08/17 08:02:45;;;;;;;17.15;9.65;;;;;;;46.04;24.52;100945.87;1774567;80;21060;-77
2021/08/17 08:05:11;;;;;;;17.87;8.95;;;;;;;45.24;25.37;100946.84;1774697;80;21106;-83
2021/08/17 08:07:37;;;;;;;15.88;9.70;;;;;;;45.48;25.33;100946.66;1774744;80;20864;-78
2021/08/17 08:10:06;;;;;;;14.80;9.48;;;;;;;45.36;24.88;100936.40;1774746;80;21625;-74
2021/08/17 08:12:33;;;;;;;16.50;9.58;;;;;;;44.46;25.57;100933.42;1774652;80;21979;-75
2021/08/17 08:14:59;;;;;;;12.63;9.28;;;;;;;44.59;26.23;100928.86;1774246;80;21522;-79
2021/08/17 08:17:25;;;;;;;14.83;9.53;;;;;;;45.10;25.74;100935.58;1774618;80;21023;-78
2021/08/17 08:20:09;;;;;;;13.40;9.35;;;;;;;45.69;25.31;100933.25;1774341;80;20983;-83
2021/08/17 08:22:31;;;;;;;12.27;9.20;;;;;;;46.18;24.97;100930.13;1653867;85;21083;-76
2021/08/17 08:24:57;;;;;;;16.50;9.85;;;;;;;46.75;24.11;100918.67;1654154;85;21137;-80
2021/08/17 08:27:23;;;;;;;14.73;9.43;;;;;;;46.44;23.55;100922.24;1654004;86;21043;-78
2021/08/17 08:29:49;;;;;;;15.88;9.88;;;;;;;45.11;24.82;100923.55;1654051;86;21603;-78
2021/08/17 08:32:15;;;;;;;14.10;9.10;;;;;;;44.68;25.45;100923.06;1653992;86;21012;-78
2021/08/17 08:34:41;;;;;;;12.75;8.98;;;;;;;44.96;25.33;100917.11;1654252;86;21781;-74
2021/08/17 08:37:07;;;;;;;13.83;8.73;;;;;;;45.42;25.04;100922.22;1654218;86;21126;-77
2021/08/17 08:39:34;;;;;;;12.47;8.53;;;;;;;45.36;24.54;100924.20;1654035;86;21092;-78
2021/08/17 08:42:01;;;;;;;16.00;9.05;;;;;;;45.71;24.59;100920.73;1654246;86;21619;-78
2021/08/17 08:44:28;;;;;;;12.95;9.48;;;;;;;46.27;23.89;100909.23;1654289;86;21540;-78
2021/08/17 08:46:54;;;;;;;16.65;9.08;;;;;;;46.99;23.50;100907.58;1654048;86;21123;-79
2021/08/17 08:49:21;;;;;;;11.73;8.73;;;;;;;47.41;22.63;100904.64;1654180;84;21770;-84
2021/08/17 08:51:47;;;;;;;13.38;8.80;;;;;;;46.92;22.31;100906.59;1654059;86;21028;-78
2021/08/17 08:54:13;;;;;;;11.18;9.20;;;;;;;46.77;22.53;100901.03;1661063;85;20971;-76
2021/08/17 08:56:39;;;;;;;12.18;8.70;;;;;;;46.18;23.17;100904.48;1666780;85;21528;-78
2021/08/17 08:59:05;;;;;;;15.10;8.60;;;;;;;45.92;23.72;100910.14;1705486;80;20960;-77
2021/08/17 09:01:31;;;;;;;12.65;8.43;;;;;;;45.51;23.85;100912.95;1780881;80;21616;-81
2021/08/17 09:03:57;;;;;;;12.35;9.15;;;;;;;45.14;24.02;100905.52;1780451;80;21365;-79
2021/08/17 09:06:27;;;;;;;14.65;8.85;;;;;;;44.19;24.28;100902.53;1780496;80;20860;-80
2021/08/17 09:09:13;;;;;;;12.58;8.68;;;;;;;43.34;25.41;100908.30;1795662;79;21031;-78
2021/08/17 09:11:45;;;;;;;15.30;8.68;;;;;;;43.10;25.42;100905.53;1769206;80;21003;-84
2021/08/17 09:14:33;;;;;;;13.98;8.43;;;;;;;42.47;26.57;100902.21;1780492;80;21058;-84
2021/08/17 09:17:08;;;;;;;12.63;8.03;;;;;;;42.36;27.34;100902.08;1780435;80;20984;-81
2021/08/17 09:19:43;;;;;;;11.88;7.97;;;;;;;42.76;26.67;100903.91;1699912;84;20959;-81
2021/08/17 09:22:22;;;;;;;11.63;7.80;;;;;;;42.48;27.13;100898.11;1700591;84;21039;-82
2021/08/17 09:25:02;;;;;;;14.45;8.43;;;;;;;42.46;27.08;100893.56;1681887;84;21383;-81
2021/08/17 09:27:32;;;;;;;14.78;7.92;;;;;;;42.11;27.19;100898.13;1682099;84;21216;-83
2021/08/17 09:30:11;;;;;;;13.38;8.60;;;;;;;42.14;27.68;100889.46;1644323;87;21115;-81
2021/08/17 09:32:57;;;;;;;13.13;7.22;;;;;;;41.76;27.95;100894.13;1644092;87;21568;-80
2021/08/17 09:35:25;;;;;;;12.13;7.95;;;;;;;41.73;28.11;100887.99;1644308;87;21112;-77
2021/08/17 09:38:08;;;;;;;13.95;7.97;;;;;;;41.96;27.87;100889.47;1646477;87;21056;-80
2021/08/17 09:40:35;;;;;;;13.65;8.08;;;;;;;41.99;27.88;100881.44;1590211;89;21273;-79
2021/08/17 09:43:19;;;;;;;14.05;8.40;;;;;;;41.52;27.72;100884.03;1588415;90;21062;-81
2021/08/17 09:45:47;;;;;;;12.07;7.37;;;;;;;40.94;28.49;100887.53;1588465;90;21612;-79
2021/08/17 09:48:14;;;;;;;14.13;8.03;;;;;;;41.06;28.40;100889.50;1588578;90;21553;-77
2021/08/17 09:50:42;;;;;;;15.53;8.00;;;;;;;40.86;28.63;100883.58;1588526;89;20947;-82
2021/08/17 09:53:14;;;;;;;14.30;8.50;;;;;;;40.73;29.20;100876.44;1588553;90;21994;-78
2021/08/17 09:55:51;;;;;;;;;;;;;;;41.03;29.39;100874.22;1590746;90;21169;-80
2021/08/17 09:58:31;;;;;;;14.47;8.28;;;;;;;41.48;29.12;100873.50;1588557;90;20201;-80
2021/08/17 10:01:00;;;;;;;14.95;7.75;;;;;;;41.39;28.95;100870.59;1591933;89;21561;-83
2021/08/17 10:03:28;;;;;;;13.95;7.90;;;;;;;41.48;28.60;100865.02;1594746;90;21003;-80
2021/08/17 10:05:56;;;;;;;12.60;7.72;;;;;;;41.05;28.60;100871.75;1594410;90;21172;-78
2021/08/17 10:08:26;;;;;;;17.07;7.47;;;;;;;40.79;28.99;100866.89;1573863;90;21140;-79
2021/08/17 10:10:54;;;;;;;14.18;7.50;;;;;;;40.65;29.31;100868.84;1519773;94;21105;-80
2021/08/17 10:13:28;;;;;;;13.65;7.10;;;;;;;40.61;29.12;100877.47;1522319;94;21109;-81
2021/08/17 10:15:54;;;;;;;12.65;7.83;;;;;;;40.28;28.60;100870.00;1535184;91;21080;-80
2021/08/17 10:18:30;;;;;;;13.03;7.30;;;;;;;39.82;29.28;100859.70;1562221;90;21124;-83
2021/08/17 10:20:59;;;;;;;11.10;6.78;;;;;;;39.64;29.91;100862.33;1562180;91;21571;-79
2021/08/17 10:23:26;;;;;;;14.60;7.08;;;;;;;39.66;29.82;100863.45;1562198;90;21140;-80
2021/08/17 10:25:59;;;;;;;10.20;6.55;;;;;;;39.70;30.32;100859.09;1567455;88;21271;-83
2021/08/17 10:28:33;;;;;;;13.32;7.40;;;;;;;39.85;29.42;100855.97;1607756;89;21408;-80
2021/08/17 10:31:14;;;;;;;15.65;7.00;;;;;;;39.55;29.98;100856.59;1608020;89;21283;-80
2021/08/17 10:36:44;;;;;;;12.93;7.47;;;;;;;37.56;32.96;100859.86;1486296;95;21626;-80
2021/08/17 10:39:27;;;;;;;11.70;6.72;;;;;;;37.22;33.37;100863.09;1485273;96;21144;-86
2021/08/17 10:41:55;;;;;;;12.65;6.22;;;;;;;36.61;34.16;100862.99;1485825;96;21091;-77
2021/08/17 10:44:32;;;;;;;9.93;6.35;;;;;;;36.22;34.84;100866.56;1486912;96;21947;-84
2021/08/17 10:47:12;;;;;;;17.60;6.95;;;;;;;36.01;35.37;100862.91;1487122;94;21137;-81
2021/08/17 10:49:46;;;;;;;13.48;6.72;;;;;;;35.95;35.44;100853.41;1485219;96;21152;-78
2021/08/17 10:52:32;;;;;;;15.95;6.80;;;;;;;36.27;35.63;100855.63;1485752;96;21244;-80
2021/08/17 10:55:27;;;;;;;16.67;7.15;;;;;;;36.58;34.68;100855.43;1485544;96;21617;-79
2021/08/17 10:57:58;;;;;;;12.45;7.33;;;;;;;36.24;34.66;100857.90;1421358;101;21154;-79
2021/08/17 11:00:46;;;;;;;13.72;7.22;;;;;;;36.08;35.51;100854.37;1421558;101;21654;-81
2021/08/17 11:03:13;;;;;;;12.37;6.45;;;;;;;36.36;35.10;100854.45;1421422;101;21079;-77
2021/08/17 11:05:54;;;;;;;12.00;5.92;;;;;;;36.87;34.44;100842.19;1421467;101;21096;-81
2021/08/17 11:08:36;;;;;;;14.13;6.37;;;;;;;37.12;33.69;100836.00;1436671;99;21126;-78
2021/08/17 11:11:19;;;;;;;12.30;5.72;;;;;;;37.31;32.49;100839.37;1475788;95;21137;-81
2021/08/17 11:14:06;;;;;;;11.70;5.60;;;;;;;37.37;32.28;100831.98;1534834;92;21132;-81
2021/08/17 11:16:46;;;;;;;12.55;6.12;;;;;;;37.67;32.46;100832.88;1534776;93;21113;-78
2021/08/17 11:19:14;;;;;;;11.45;6.90;;;;;;;37.88;32.06;100839.33;1534892;92;21064;-77